Time;durP1;ratioP1;P1;durP2;ratioP2;P2;SDS_P1;SDS_P2;PMS_P1;PMS_P2;Temp;Humidity;BMP_temperature;BMP_pressure;BME280_temperature;BME280_humidity;BME280_pressure;Samples;Min_cycle;Max_cycle;Signal;HPM_P1;HPM_P2
2021/03/03 00:00:48;;;;;;;16.92;11.25;;;;;;;;;;4986832;28;20117;-59
2021/03/03 00:03:14;;;;;;;18.02;10.63;;;;;;;;;;4989326;28;20022;-59
2021/03/03 00:05:39;;;;;;;17.52;10.35;;;;;;;;;;4987221;28;20026;-59
2021/03/03 00:08:05;;;;;;;14.90;9.65;;;;;;;;;;4989614;28;20033;-59
2021/03/03 00:10:30;;;;;;;13.05;9.43;;;;;;;;;;4989374;28;20030;-59
2021/03/03 00:12:56;;;;;;;13.80;10.73;;;;;;;;;;4988404;28;20076;-59
2021/03/03 00:15:21;;;;;;;14.93;9.43;;;;;;;;;;4986871;28;20026;-59
2021/03/03 00:17:47;;;;;;;16.70;10.55;;;;;;;;;;4988150;28;20113;-60
2021/03/03 00:20:13;;;;;;;15.65;10.00;;;;;;;;;;4986304;28;20019;-59
2021/03/03 00:22:38;;;;;;;13.60;10.50;;;;;;;;;;4988847;28;20026;-59
2021/03/03 00:25:05;;;;;;;17.30;11.48;;;;;;;;;;4989255;28;20418;-59
2021/03/03 00:27:30;;;;;;;14.63;10.70;;;;;;;;;;4987839;28;20038;-59
2021/03/03 00:29:56;;;;;;;17.25;10.85;;;;;;;;;;4988083;28;20045;-59
2021/03/03 00:32:21;;;;;;;15.93;11.20;;;;;;;;;;4985237;28;20031;-60
2021/03/03 00:34:47;;;;;;;23.33;11.55;;;;;;;;;;4987268;28;20026;-59
2021/03/03 00:37:12;;;;;;;19.10;12.20;;;;;;;;;;4985892;28;20035;-59
2021/03/03 00:39:37;;;;;;;18.13;12.27;;;;;;;;;;4988576;28;20093;-59
2021/03/03 00:42:03;;;;;;;18.63;12.90;;;;;;;;;;4988152;28;20045;-59
2021/03/03 00:44:29;;;;;;;20.70;11.55;;;;;;;;;;4987661;28;20038;-59
2021/03/03 00:46:54;;;;;;;17.20;10.63;;;;;;;;;;4985919;28;20030;-59
2021/03/03 00:49:19;;;;;;;15.93;10.77;;;;;;;;;;4987883;28;20579;-59
2021/03/03 00:51:45;;;;;;;18.05;11.15;;;;;;;;;;4988004;28;20109;-59
2021/03/03 00:54:10;;;;;;;18.17;11.27;;;;;;;;;;4988605;28;20483;-59
2021/03/03 00:56:36;;;;;;;14.65;10.73;;;;;;;;;;4988132;28;20042;-59
2021/03/03 00:59:01;;;;;;;18.02;10.35;;;;;;;;;;4987911;28;20030;-59
2021/03/03 01:01:27;;;;;;;15.15;10.98;;;;;;;;;;4988648;28;20034;-59
2021/03/03 01:03:52;;;;;;;17.40;10.10;;;;;;;;;;4989210;28;20030;-59
2021/03/03 01:06:17;;;;;;;15.05;10.50;;;;;;;;;;4990206;28;20481;-59
2021/03/03 01:08:43;;;;;;;21.10;11.57;;;;;;;;;;4992817;28;20018;-59
2021/03/03 01:11:08;;;;;;;16.50;11.30;;;;;;;;;;4992664;28;20088;-59
2021/03/03 01:13:36;;;;;;;17.85;11.38;;;;;;;;;;4992228;28;20030;-59
2021/03/03 01:16:02;;;;;;;15.93;11.48;;;;;;;;;;4989022;28;20045;-59
2021/03/03 01:18:27;;;;;;;16.63;10.57;;;;;;;;;;4991985;28;20042;-59
2021/03/03 01:20:52;;;;;;;16.95;10.57;;;;;;;;;;4992649;28;20081;-59
2021/03/03 01:23:18;;;;;;;17.08;10.57;;;;;;;;;;4989996;28;20026;-60
2021/03/03 01:25:43;;;;;;;17.23;10.60;;;;;;;;;;4989474;28;20125;-59
2021/03/03 01:28:09;;;;;;;22.30;10.88;;;;;;;;;;4992281;28;20112;-59
2021/03/03 01:30:36;;;;;;;17.15;11.00;;;;;;;;;;4990660;28;21016;-59
2021/03/03 01:33:02;;;;;;;17.80;11.30;;;;;;;;;;4989872;28;20022;-59
2021/03/03 01:35:27;;;;;;;17.20;10.80;;;;;;;;;;4988921;28;20065;-59
2021/03/03 01:37:53;;;;;;;16.67;10.70;;;;;;;;;;4987895;28;20026;-59
2021/03/03 01:40:18;;;;;;;16.65;11.48;;;;;;;;;;4990217;28;20512;-59
2021/03/03 01:42:44;;;;;;;17.27;11.23;;;;;;;;;;4991013;28;20037;-59
2021/03/03 01:45:10;;;;;;;17.33;10.60;;;;;;;;;;4992106;28;20096;-59
2021/03/03 01:47:35;;;;;;;19.17;11.07;;;;;;;;;;4991148;28;20095;-59
2021/03/03 01:50:06;;;;;;;16.67;10.93;;;;;;;;;;4990445;28;20109;-59
2021/03/03 01:52:33;;;;;;;15.48;10.52;;;;;;;;;;4989341;28;20045;-59
2021/03/03 01:54:58;;;;;;;18.83;11.02;;;;;;;;;;4989176;28;20022;-59
2021/03/03 01:57:23;;;;;;;15.93;10.55;;;;;;;;;;4991290;28;20576;-59
2021/03/03 01:59:49;;;;;;;16.33;11.63;;;;;;;;;;4990371;28;20037;-60
2021/03/03 02:02:15;;;;;;;20.13;10.98;;;;;;;;;;4991412;28;20045;-60
2021/03/03 02:04:40;;;;;;;16.48;9.98;;;;;;;;;;4988493;28;20502;-59
2021/03/03 02:07:21;;;;;;;19.75;11.07;;;;;;;;;;4991544;28;20185;-59
2021/03/03 02:09:56;;;;;;;18.13;11.23;;;;;;;;;;4990133;28;20065;-59
2021/03/03 02:12:34;;;;;;;14.10;9.55;;;;;;;;;;4989244;28;20026;-60
2021/03/03 02:15:02;;;;;;;13.32;9.93;;;;;;;;;;4989784;28;20652;-59
2021/03/03 02:17:30;;;;;;;13.85;9.93;;;;;;;;;;4990206;28;20181;-59
2021/03/03 02:20:02;;;;;;;18.92;9.90;;;;;;;;;;4991776;28;20043;-59
2021/03/03 02:22:56;;;;;;;18.13;11.60;;;;;;;;;;4991398;28;20034;-59
2021/03/03 02:25:22;;;;;;;19.15;10.52;;;;;;;;;;4988902;28;20050;-59
2021/03/03 02:27:48;;;;;;;19.30;11.30;;;;;;;;;;4991654;28;20404;-59
2021/03/03 02:30:15;;;;;;;18.52;12.63;;;;;;;;;;4990646;28;20034;-60
2021/03/03 02:32:40;;;;;;;18.65;12.88;;;;;;;;;;4989979;28;20047;-59
2021/03/03 02:35:09;;;;;;;19.50;12.15;;;;;;;;;;4990879;28;20528;-59
2021/03/03 02:37:35;;;;;;;19.25;11.30;;;;;;;;;;4988682;28;20030;-60
2021/03/03 02:40:05;;;;;;;18.88;11.73;;;;;;;;;;4988000;28;20030;-60
2021/03/03 02:42:32;;;;;;;16.00;10.77;;;;;;;;;;4990209;28;20067;-59
2021/03/03 02:44:58;;;;;;;17.02;11.60;;;;;;;;;;4989293;28;20030;-59
2021/03/03 02:47:24;;;;;;;19.13;12.68;;;;;;;;;;4986556;28;20038;-59
2021/03/03 02:49:50;;;;;;;20.50;11.57;;;;;;;;;;4990301;28;20121;-59
2021/03/03 02:52:16;;;;;;;18.45;13.00;;;;;;;;;;4987520;28;20045;-59
2021/03/03 02:54:43;;;;;;;17.00;12.10;;;;;;;;;;4991034;28;20027;-59
2021/03/03 02:57:09;;;;;;;17.02;11.60;;;;;;;;;;4990629;28;20053;-57
2021/03/03 02:59:37;;;;;;;18.85;12.02;;;;;;;;;;4990402;28;20046;-59
2021/03/03 03:02:06;;;;;;;18.98;12.98;;;;;;;;;;4988885;28;20384;-59
2021/03/03 03:04:35;;;;;;;22.42;12.40;;;;;;;;;;4989372;28;20033;-59
2021/03/03 03:07:08;;;;;;;25.42;12.77;;;;;;;;;;4990563;28;20364;-59
2021/03/03 03:09:36;;;;;;;17.08;12.32;;;;;;;;;;4988053;28;20048;-60
2021/03/03 03:12:03;;;;;;;17.80;11.85;;;;;;;;;;4985238;28;20042;-60
2021/03/03 03:14:29;;;;;;;19.23;12.35;;;;;;;;;;4987041;28;20034;-59
2021/03/03 03:16:59;;;;;;;18.92;12.73;;;;;;;;;;4989939;28;20030;-60
2021/03/03 03:19:33;;;;;;;18.83;12.43;;;;;;;;;;4986672;28;20493;-60
2021/03/03 03:22:00;;;;;;;22.23;12.05;;;;;;;;;;4984703;28;20037;-60
2021/03/03 03:24:26;;;;;;;21.95;12.18;;;;;;;;;;4988394;28;20375;-60
2021/03/03 03:26:52;;;;;;;17.23;11.20;;;;;;;;;;4990282;28;20026;-60
2021/03/03 03:29:18;;;;;;;17.45;12.68;;;;;;;;;;4989462;28;20041;-60
2021/03/03 03:31:45;;;;;;;20.13;12.32;;;;;;;;;;4990715;28;20336;-60
2021/03/03 03:34:11;;;;;;;17.30;11.25;;;;;;;;;;4990491;28;20030;-60
2021/03/03 03:36:40;;;;;;;18.58;11.95;;;;;;;;;;4990218;28;20144;-60
2021/03/03 03:39:10;;;;;;;16.33;11.57;;;;;;;;;;4989025;28;22146;-60
2021/03/03 03:41:37;;;;;;;18.70;12.18;;;;;;;;;;4990033;28;20151;-60
2021/03/03 03:44:06;;;;;;;17.40;11.43;;;;;;;;;;4990381;28;20093;-60
2021/03/03 03:46:32;;;;;;;19.10;11.52;;;;;;;;;;4989714;28;20034;-60
2021/03/03 03:48:58;;;;;;;24.83;12.05;;;;;;;;;;4988981;28;20034;-59
2021/03/03 03:51:24;;;;;;;22.13;11.63;;;;;;;;;;4989068;28;20022;-59
2021/03/03 03:53:49;;;;;;;19.55;12.45;;;;;;;;;;4988437;28;20025;-59
2021/03/03 03:56:15;;;;;;;15.87;11.43;;;;;;;;;;4986328;28;20180;-59
2021/03/03 03:58:41;;;;;;;16.55;12.00;;;;;;;;;;4988683;28;20426;-59
2021/03/03 04:01:06;;;;;;;17.02;11.57;;;;;;;;;;4989859;28;20034;-59
2021/03/03 04:03:32;;;;;;;19.88;11.57;;;;;;;;;;4989535;28;20034;-59
2021/03/03 04:06:02;;;;;;;19.45;12.05;;;;;;;;;;4972635;28;20480;-59
2021/03/03 04:08:27;;;;;;;16.83;10.65;;;;;;;;;;4988136;28;20038;-59
2021/03/03 04:10:52;;;;;;;17.80;11.77;;;;;;;;;;4956399;28;20478;-59
2021/03/03 04:13:18;;;;;;;18.98;12.13;;;;;;;;;;4989560;28;20061;-59
2021/03/03 04:15:44;;;;;;;16.63;12.10;;;;;;;;;;4989276;28;20034;-59
2021/03/03 04:18:11;;;;;;;14.35;11.77;;;;;;;;;;4988705;28;20049;-59
2021/03/03 04:20:36;;;;;;;17.05;12.32;;;;;;;;;;4989523;28;20114;-59
2021/03/03 04:23:02;;;;;;;18.90;12.30;;;;;;;;;;4989559;28;20121;-58
2021/03/03 04:25:28;;;;;;;16.80;11.95;;;;;;;;;;4988419;28;20054;-59
2021/03/03 04:27:53;;;;;;;18.20;11.65;;;;;;;;;;4989322;28;20018;-59
2021/03/03 04:30:19;;;;;;;18.17;11.77;;;;;;;;;;4988393;28;20456;-58
2021/03/03 04:32:45;;;;;;;17.70;12.15;;;;;;;;;;4988578;28;20089;-59
2021/03/03 04:35:11;;;;;;;17.50;11.77;;;;;;;;;;4986961;28;20038;-59
2021/03/03 04:37:39;;;;;;;19.55;12.55;;;;;;;;;;4986344;28;20041;-59
2021/03/03 04:40:07;;;;;;;17.70;12.30;;;;;;;;;;4989381;28;20030;-59
2021/03/03 04:42:33;;;;;;;16.70;11.45;;;;;;;;;;4991849;28;20045;-59
2021/03/03 04:44:58;;;;;;;19.52;12.63;;;;;;;;;;4993494;28;20022;-59
2021/03/03 04:47:24;;;;;;;17.80;11.55;;;;;;;;;;4993074;28;20022;-59
2021/03/03 04:49:49;;;;;;;14.38;10.15;;;;;;;;;;4993375;28;20050;-58
2021/03/03 04:52:15;;;;;;;18.52;11.07;;;;;;;;;;4992026;28;20095;-58
2021/03/03 04:54:40;;;;;;;19.38;11.27;;;;;;;;;;4993217;28;20030;-58
2021/03/03 04:57:06;;;;;;;13.98;10.20;;;;;;;;;;4993084;28;20045;-59
2021/03/03 04:59:31;;;;;;;16.67;11.13;;;;;;;;;;4992652;28;20341;-59
2021/03/03 05:01:57;;;;;;;15.13;10.30;;;;;;;;;;4990936;28;20034;-59
2021/03/03 05:04:23;;;;;;;19.65;11.45;;;;;;;;;;4992970;28;20042;-59
2021/03/03 05:06:48;;;;;;;18.17;13.00;;;;;;;;;;4991068;28;20105;-59
2021/03/03 05:09:13;;;;;;;23.58;13.27;;;;;;;;;;4991453;28;20029;-59
2021/03/03 05:11:39;;;;;;;18.05;12.55;;;;;;;;;;4990973;28;20045;-59
2021/03/03 05:14:04;;;;;;;14.55;11.00;;;;;;;;;;4992179;28;20073;-59
2021/03/03 05:16:30;;;;;;;16.98;11.63;;;;;;;;;;4992380;28;20488;-59
2021/03/03 05:18:55;;;;;;;18.58;12.10;;;;;;;;;;4988550;28;20031;-59
2021/03/03 05:21:20;;;;;;;14.73;11.77;;;;;;;;;;4990439;28;20026;-59
2021/03/03 05:23:46;;;;;;;20.35;13.70;;;;;;;;;;4992875;28;20111;-58
2021/03/03 05:26:12;;;;;;;18.85;13.52;;;;;;;;;;4993070;28;20124;-59
2021/03/03 05:28:37;;;;;;;21.83;12.88;;;;;;;;;;4991715;28;20027;-59
2021/03/03 05:31:03;;;;;;;19.08;12.50;;;;;;;;;;4992666;28;20117;-58
2021/03/03 05:33:35;;;;;;;19.75;11.43;;;;;;;;;;4992117;28;20084;-59
2021/03/03 05:36:04;;;;;;;18.05;11.88;;;;;;;;;;4992135;28;20094;-59
2021/03/03 05:38:31;;;;;;;21.05;11.77;;;;;;;;;;4991064;28;20031;-59
2021/03/03 05:40:56;;;;;;;19.95;11.20;;;;;;;;;;4992515;28;20022;-59
2021/03/03 05:43:22;;;;;;;19.25;12.65;;;;;;;;;;4992231;28;20041;-59
2021/03/03 05:45:49;;;;;;;16.23;12.02;;;;;;;;;;4990245;28;20056;-59
2021/03/03 05:48:24;;;;;;;16.27;11.82;;;;;;;;;;4989126;28;20524;-59
2021/03/03 05:50:58;;;;;;;21.15;13.40;;;;;;;;;;4987861;28;20033;-59
2021/03/03 05:53:27;;;;;;;16.63;12.23;;;;;;;;;;4990808;28;20412;-59
2021/03/03 05:55:57;;;;;;;18.10;12.07;;;;;;;;;;4991707;28;20045;-59
2021/03/03 05:58:23;;;;;;;19.42;13.23;;;;;;;;;;4989410;28;20216;-59
2021/03/03 06:00:50;;;;;;;24.27;14.02;;;;;;;;;;4989707;28;20049;-59
2021/03/03 06:03:18;;;;;;;19.95;13.60;;;;;;;;;;4989610;28;20122;-59
2021/03/03 06:05:47;;;;;;;18.17;13.85;;;;;;;;;;4990774;28;20030;-59
2021/03/03 06:08:15;;;;;;;18.55;13.45;;;;;;;;;;4990694;28;20030;-59
2021/03/03 06:10:40;;;;;;;22.50;12.85;;;;;;;;;;4990364;28;20471;-59
2021/03/03 06:13:06;;;;;;;19.63;13.00;;;;;;;;;;4991757;28;20030;-59
2021/03/03 06:15:31;;;;;;;23.60;13.63;;;;;;;;;;4991465;28;20038;-60
2021/03/03 06:17:57;;;;;;;23.98;16.10;;;;;;;;;;4991291;28;20774;-59
2021/03/03 06:20:23;;;;;;;19.25;15.38;;;;;;;;;;4991628;28;20029;-59
2021/03/03 06:22:48;;;;;;;21.92;14.93;;;;;;;;;;4982467;28;20041;-59
2021/03/03 06:25:22;;;;;;;23.63;15.23;;;;;;;;;;4987179;28;20031;-59
2021/03/03 06:27:48;;;;;;;20.52;13.55;;;;;;;;;;4985117;28;20034;-59
2021/03/03 06:30:15;;;;;;;22.27;14.35;;;;;;;;;;4987520;28;20587;-59
2021/03/03 06:33:05;;;;;;;22.08;13.85;;;;;;;;;;4989526;28;20061;-59
2021/03/03 06:35:39;;;;;;;22.55;15.63;;;;;;;;;;4981290;28;20043;-59
2021/03/03 06:38:07;;;;;;;23.02;14.00;;;;;;;;;;4990058;28;20259;-59
2021/03/03 06:40:33;;;;;;;20.65;14.00;;;;;;;;;;4987710;28;20049;-59
2021/03/03 06:43:17;;;;;;;23.80;14.45;;;;;;;;;;4987645;28;20053;-59
2021/03/03 06:45:43;;;;;;;20.20;14.43;;;;;;;;;;4987389;28;20045;-59
2021/03/03 06:48:09;;;;;;;26.27;14.15;;;;;;;;;;4988204;28;20022;-59
2021/03/03 06:50:36;;;;;;;25.83;14.43;;;;;;;;;;4988838;28;20126;-59
2021/03/03 06:53:01;;;;;;;17.92;13.32;;;;;;;;;;4989461;28;20169;-59
2021/03/03 06:55:47;;;;;;;21.17;14.15;;;;;;;;;;4987350;28;20078;-59
2021/03/03 06:58:27;;;;;;;21.23;13.68;;;;;;;;;;4985628;28;20039;-59
2021/03/03 07:00:53;;;;;;;27.98;14.98;;;;;;;;;;4987743;28;20022;-59
2021/03/03 07:03:32;;;;;;;33.70;21.20;;;;;;;;;;4984244;28;20104;-59
2021/03/03 07:05:58;;;;;;;38.47;22.95;;;;;;;;;;4987978;28;20113;-59
2021/03/03 07:08:24;;;;;;;40.80;21.52;;;;;;;;;;4989428;28;20148;-60
2021/03/03 07:10:49;;;;;;;34.78;21.58;;;;;;;;;;4986699;28;20144;-60
2021/03/03 07:13:15;;;;;;;34.88;18.58;;;;;;;;;;4987806;28;20038;-59
2021/03/03 07:15:41;;;;;;;24.95;15.05;;;;;;;;;;4990130;28;20100;-59
2021/03/03 07:18:34;;;;;;;21.00;14.30;;;;;;;;;;4986919;28;20042;-59
2021/03/03 07:21:00;;;;;;;19.45;13.75;;;;;;;;;;4975721;28;20488;-60
2021/03/03 07:23:47;;;;;;;17.95;13.23;;;;;;;;;;4986529;28;20037;-59
2021/03/03 07:26:14;;;;;;;23.30;14.20;;;;;;;;;;4988414;28;20065;-60
2021/03/03 07:28:40;;;;;;;20.55;12.93;;;;;;;;;;4989516;28;20018;-60
2021/03/03 07:31:10;;;;;;;21.95;12.80;;;;;;;;;;4989771;28;20042;-60
2021/03/03 07:33:36;;;;;;;39.45;27.20;;;;;;;;;;4986278;28;20076;-59
2021/03/03 07:36:05;;;;;;;53.78;36.67;;;;;;;;;;4988908;28;20058;-59
2021/03/03 07:38:33;;;;;;;28.50;18.40;;;;;;;;;;4989362;28;20360;-59
2021/03/03 07:41:09;;;;;;;26.52;17.13;;;;;;;;;;4986139;28;20105;-59
2021/03/03 07:43:35;;;;;;;23.50;15.30;;;;;;;;;;4985143;28;20034;-59
2021/03/03 07:46:07;;;;;;;24.20;15.75;;;;;;;;;;4988300;28;20207;-59
2021/03/03 07:48:39;;;;;;;24.48;16.95;;;;;;;;;;4987905;28;20035;-59
2021/03/03 07:51:08;;;;;;;22.38;15.60;;;;;;;;;;4986635;28;20058;-60
2021/03/03 07:53:38;;;;;;;25.20;15.73;;;;;;;;;;4989190;28;20038;-59
2021/03/03 07:56:07;;;;;;;22.92;15.30;;;;;;;;;;4982146;28;20030;-59
2021/03/03 07:58:35;;;;;;;20.88;14.25;;;;;;;;;;4987230;28;20034;-59
2021/03/03 08:01:02;;;;;;;22.38;15.85;;;;;;;;;;4987373;28;20525;-60
2021/03/03 08:03:41;;;;;;;26.88;14.80;;;;;;;;;;4988126;28;20035;-59
2021/03/03 08:06:28;;;;;;;27.33;14.57;;;;;;;;;;4988155;28;20077;-60
2021/03/03 08:09:06;;;;;;;24.83;15.63;;;;;;;;;;4987765;28;20022;-60
2021/03/03 08:11:37;;;;;;;21.55;15.45;;;;;;;;;;4988393;28;20034;-59
2021/03/03 08:14:02;;;;;;;27.23;16.40;;;;;;;;;;4988112;28;20826;-60
2021/03/03 08:16:28;;;;;;;27.45;16.92;;;;;;;;;;4989048;28;20034;-60
2021/03/03 08:18:57;;;;;;;28.85;16.33;;;;;;;;;;4988618;28;20095;-60
2021/03/03 08:21:25;;;;;;;27.23;17.20;;;;;;;;;;4987204;28;20042;-60
2021/03/03 08:23:51;;;;;;;24.20;16.58;;;;;;;;;;4985891;28;20092;-60
2021/03/03 08:26:16;;;;;;;26.83;16.92;;;;;;;;;;4987440;28;20105;-60
2021/03/03 08:28:43;;;;;;;27.10;16.75;;;;;;;;;;4988970;28;20026;-59
2021/03/03 08:31:08;;;;;;;23.92;16.08;;;;;;;;;;4984858;28;20034;-60
2021/03/03 08:33:39;;;;;;;31.23;18.42;;;;;;;;;;4987948;28;20038;-59
2021/03/03 08:36:06;;;;;;;22.92;16.58;;;;;;;;;;4985890;28;20219;-59
2021/03/03 08:38:32;;;;;;;27.23;16.38;;;;;;;;;;4983116;28;20061;-59
2021/03/03 08:41:30;;;;;;;23.67;16.70;;;;;;;;;;4988182;28;20105;-59
2021/03/03 08:44:16;;;;;;;30.23;17.10;;;;;;;;;;4984408;28;20082;-59
2021/03/03 08:46:42;;;;;;;23.77;16.75;;;;;;;;;;4987880;28;20034;-59
2021/03/03 08:49:07;;;;;;;22.40;16.05;;;;;;;;;;4983241;28;20031;-59
2021/03/03 08:51:41;;;;;;;23.60;16.75;;;;;;;;;;4985140;28;21151;-60
2021/03/03 08:54:13;;;;;;;29.70;16.05;;;;;;;;;;4987102;28;20027;-59
2021/03/03 08:56:39;;;;;;;25.77;16.58;;;;;;;;;;4988337;28;20093;-60
2021/03/03 08:59:36;;;;;;;24.00;16.25;;;;;;;;;;4987769;28;20061;-59
2021/03/03 09:02:18;;;;;;;31.80;16.48;;;;;;;;;;4987077;28;20153;-60
2021/03/03 09:04:45;;;;;;;21.45;16.20;;;;;;;;;;4988325;28;20452;-60
2021/03/03 09:07:20;;;;;;;28.20;17.25;;;;;;;;;;4984510;28;20061;-59
2021/03/03 09:09:49;;;;;;;25.13;16.90;;;;;;;;;;4985696;28;20045;-59
2021/03/03 09:12:22;;;;;;;26.70;17.38;;;;;;;;;;4987238;28;20748;-59
2021/03/03 09:14:50;;;;;;;24.38;17.02;;;;;;;;;;4988024;28;20042;-60
2021/03/03 09:17:18;;;;;;;25.05;17.42;;;;;;;;;;4986279;28;20456;-59
2021/03/03 09:19:44;;;;;;;29.70;18.20;;;;;;;;;;5007261;28;20590;-59
2021/03/03 09:22:23;;;;;;;23.02;16.60;;;;;;;;;;4987114;28;20066;-59
2021/03/03 09:24:51;;;;;;;24.13;17.90;;;;;;;;;;4988523;28;20042;-59
2021/03/03 09:27:16;;;;;;;27.42;18.25;;;;;;;;;;4991465;28;20054;-59
2021/03/03 09:29:42;;;;;;;26.92;17.17;;;;;;;;;;4984940;28;20068;-59
2021/03/03 09:32:13;;;;;;;25.15;18.33;;;;;;;;;;4991851;28;20030;-59
2021/03/03 09:35:02;;;;;;;29.05;17.88;;;;;;;;;;4991631;28;20427;-59
2021/03/03 09:37:35;;;;;;;30.95;18.23;;;;;;;;;;4989073;28;20042;-59
2021/03/03 09:40:01;;;;;;;31.50;19.10;;;;;;;;;;4990248;28;20026;-60
2021/03/03 09:42:35;;;;;;;26.45;18.27;;;;;;;;;;4989911;28;20125;-59
2021/03/03 09:45:01;;;;;;;32.38;19.60;;;;;;;;;;4989782;28;20093;-59
2021/03/03 09:47:34;;;;;;;31.13;19.27;;;;;;;;;;4989930;28;20043;-59
2021/03/03 09:50:05;;;;;;;32.08;20.42;;;;;;;;;;4988843;28;20034;-60
2021/03/03 09:52:39;;;;;;;27.55;18.80;;;;;;;;;;4990742;28;20068;-59
2021/03/03 09:55:08;;;;;;;30.80;19.70;;;;;;;;;;4985084;28;20034;-60
2021/03/03 09:57:33;;;;;;;27.10;20.27;;;;;;;;;;4987727;28;20481;-60
2021/03/03 09:59:59;;;;;;;30.25;20.98;;;;;;;;;;4986847;28;20042;-61
2021/03/03 10:02:27;;;;;;;28.13;20.45;;;;;;;;;;4984873;28;20077;-60
2021/03/03 10:04:55;;;;;;;28.55;20.20;;;;;;;;;;4988739;28;20253;-60
2021/03/03 10:07:24;;;;;;;25.95;19.77;;;;;;;;;;4989919;28;20032;-60
2021/03/03 10:09:55;;;;;;;28.50;19.92;;;;;;;;;;4987686;28;20026;-61
2021/03/03 10:12:26;;;;;;;29.30;19.05;;;;;;;;;;4987155;28;20042;-58
2021/03/03 10:14:51;;;;;;;;;;;;;;;;;;4990066;28;20030;-58
2021/03/03 10:17:47;;;;;;;27.60;19.65;;;;;;;;;;4988616;28;19925;-58
2021/03/03 10:20:31;;;;;;;23.65;18.75;;;;;;;;;;4983310;28;20099;-59
2021/03/03 10:22:58;;;;;;;28.25;20.02;;;;;;;;;;4987902;28;20050;-59
2021/03/03 10:25:37;;;;;;;27.75;21.02;;;;;;;;;;4988493;28;20053;-59
2021/03/03 10:28:10;;;;;;;28.05;19.38;;;;;;;;;;4990614;28;20030;-59
2021/03/03 10:30:38;;;;;;;29.15;19.52;;;;;;;;;;4990756;28;20034;-58
2021/03/03 10:33:07;;;;;;;31.50;20.42;;;;;;;;;;4989947;28;20030;-59
2021/03/03 10:35:45;;;;;;;25.10;19.30;;;;;;;;;;4987705;28;20038;-59
2021/03/03 10:38:16;;;;;;;27.20;20.60;;;;;;;;;;4990161;28;20026;-58
2021/03/03 10:40:43;;;;;;;25.35;19.55;;;;;;;;;;4966924;28;20482;-59
2021/03/03 10:43:14;;;;;;;30.05;20.63;;;;;;;;;;4985528;28;20037;-59
2021/03/03 10:45:43;;;;;;;33.83;22.23;;;;;;;;;;4985588;28;20030;-59
2021/03/03 10:48:08;;;;;;;32.80;22.30;;;;;;;;;;4990530;28;20030;-59
2021/03/03 10:50:49;;;;;;;33.33;21.33;;;;;;;;;;4990229;28;20035;-60
2021/03/03 10:53:15;;;;;;;37.92;22.52;;;;;;;;;;4987351;28;20052;-60
2021/03/03 10:55:41;;;;;;;29.65;20.85;;;;;;;;;;4988958;28;20030;-60
2021/03/03 10:58:12;;;;;;;28.33;22.23;;;;;;;;;;4989397;28;20061;-60
2021/03/03 11:00:57;;;;;;;29.75;21.95;;;;;;;;;;4989498;28;20363;-60
2021/03/03 11:03:24;;;;;;;38.90;23.00;;;;;;;;;;4986698;28;20099;-59
2021/03/03 11:05:57;;;;;;;31.08;22.02;;;;;;;;;;4985633;28;20471;-60
2021/03/03 11:08:23;;;;;;;36.92;23.23;;;;;;;;;;4988468;28;20038;-60
2021/03/03 11:10:49;;;;;;;30.13;21.17;;;;;;;;;;4986624;28;20608;-60
2021/03/03 11:13:16;;;;;;;34.50;22.60;;;;;;;;;;4989829;28;20034;-59
2021/03/03 11:15:42;;;;;;;26.33;22.17;;;;;;;;;;4990579;28;20038;-60
2021/03/03 11:18:11;;;;;;;31.35;21.60;;;;;;;;;;4986369;28;20037;-60
2021/03/03 11:20:37;;;;;;;28.17;22.35;;;;;;;;;;4989721;28;20030;-60
2021/03/03 11:23:04;;;;;;;26.05;21.45;;;;;;;;;;4989796;28;20145;-60
2021/03/03 11:25:29;;;;;;;29.77;21.80;;;;;;;;;;4989740;28;20095;-60
2021/03/03 11:27:55;;;;;;;33.00;21.75;;;;;;;;;;4987381;28;20125;-59
2021/03/03 11:30:20;;;;;;;33.60;22.65;;;;;;;;;;4989350;28;20049;-60
2021/03/03 11:32:46;;;;;;;30.98;23.52;;;;;;;;;;4988944;28;20511;-58
2021/03/03 11:35:12;;;;;;;29.13;23.17;;;;;;;;;;4989560;28;20030;-58
2021/03/03 11:37:37;;;;;;;32.80;22.25;;;;;;;;;;4988134;28;20034;-58
2021/03/03 11:40:03;;;;;;;31.33;23.15;;;;;;;;;;4989685;28;20030;-58
2021/03/03 11:42:29;;;;;;;29.02;21.25;;;;;;;;;;4988827;28;20480;-59
2021/03/03 11:44:54;;;;;;;42.08;22.33;;;;;;;;;;4988606;28;20036;-58
2021/03/03 11:47:20;;;;;;;33.42;23.15;;;;;;;;;;4986750;28;20034;-58
2021/03/03 11:49:45;;;;;;;27.55;22.42;;;;;;;;;;4987630;28;20042;-58
2021/03/03 11:52:10;;;;;;;34.28;22.08;;;;;;;;;;4988415;28;20038;-59
2021/03/03 11:54:36;;;;;;;36.53;21.25;;;;;;;;;;4988392;28;20061;-59
2021/03/03 11:57:01;;;;;;;36.58;20.75;;;;;;;;;;4989467;28;20185;-59
2021/03/03 11:59:26;;;;;;;27.52;20.95;;;;;;;;;;4986893;28;20065;-60
2021/03/03 12:01:53;;;;;;;31.65;20.92;;;;;;;;;;4985032;28;20043;-59
2021/03/03 12:04:19;;;;;;;26.17;21.92;;;;;;;;;;4988370;28;20124;-59
2021/03/03 12:06:44;;;;;;;24.65;19.77;;;;;;;;;;4987239;28;20121;-59
2021/03/03 12:09:10;;;;;;;26.08;21.27;;;;;;;;;;4989591;28;20041;-59
2021/03/03 12:11:36;;;;;;;39.63;22.95;;;;;;;;;;4988810;28;20105;-59
2021/03/03 12:14:01;;;;;;;27.08;21.35;;;;;;;;;;4988457;28;20400;-59
2021/03/03 12:16:27;;;;;;;31.85;23.00;;;;;;;;;;4988574;28;20045;-59
2021/03/03 12:18:52;;;;;;;36.20;21.95;;;;;;;;;;4986329;28;20057;-59
2021/03/03 12:21:17;;;;;;;23.02;20.33;;;;;;;;;;4988849;28;20022;-59
2021/03/03 12:23:43;;;;;;;33.35;22.45;;;;;;;;;;4988684;28;20030;-59
2021/03/03 12:26:08;;;;;;;30.90;21.80;;;;;;;;;;4988660;28;20535;-60
2021/03/03 12:28:36;;;;;;;36.00;23.77;;;;;;;;;;4985983;28;20045;-59
2021/03/03 12:31:01;;;;;;;33.35;21.50;;;;;;;;;;4974796;28;20045;-59
2021/03/03 12:33:26;;;;;;;27.50;20.80;;;;;;;;;;4979463;28;20376;-59
2021/03/03 12:35:52;;;;;;;26.20;18.85;;;;;;;;;;4986230;28;20490;-59
2021/03/03 12:38:17;;;;;;;33.92;20.67;;;;;;;;;;4986683;28;20116;-60
2021/03/03 12:40:43;;;;;;;27.30;21.23;;;;;;;;;;4988054;28;20030;-59
2021/03/03 12:43:08;;;;;;;25.95;20.00;;;;;;;;;;4985465;28;20045;-59
2021/03/03 12:45:33;;;;;;;24.73;19.65;;;;;;;;;;4987745;28;20034;-59
2021/03/03 12:47:59;;;;;;;28.90;20.73;;;;;;;;;;4986799;28;20031;-59
2021/03/03 12:50:25;;;;;;;25.52;19.63;;;;;;;;;;4984052;28;20058;-59
2021/03/03 12:52:50;;;;;;;35.50;20.98;;;;;;;;;;4987553;28;20121;-59
2021/03/03 12:55:16;;;;;;;28.88;20.70;;;;;;;;;;4984564;28;20057;-59
2021/03/03 12:57:42;;;;;;;28.50;19.55;;;;;;;;;;4985781;28;20038;-58
2021/03/03 13:00:10;;;;;;;28.13;20.38;;;;;;;;;;4989216;28;20030;-59
2021/03/03 13:02:35;;;;;;;28.50;19.58;;;;;;;;;;4989130;28;20034;-59
2021/03/03 13:05:00;;;;;;;30.40;20.85;;;;;;;;;;4991029;28;20679;-59
2021/03/03 13:07:26;;;;;;;27.77;19.05;;;;;;;;;;4988597;28;20113;-59
2021/03/03 13:09:51;;;;;;;30.33;19.55;;;;;;;;;;4991410;28;20113;-59
2021/03/03 13:12:17;;;;;;;30.40;20.13;;;;;;;;;;4990467;28;20126;-59
2021/03/03 13:14:42;;;;;;;26.40;18.40;;;;;;;;;;4990287;28;20089;-59
2021/03/03 13:17:07;;;;;;;28.90;19.45;;;;;;;;;;4989769;28;20376;-59
2021/03/03 13:19:33;;;;;;;26.35;16.73;;;;;;;;;;4990385;28;20031;-59
2021/03/03 13:21:59;;;;;;;28.30;18.05;;;;;;;;;;4991895;28;20026;-59
2021/03/03 13:24:24;;;;;;;28.63;18.80;;;;;;;;;;4988327;28;20117;-59
2021/03/03 13:26:51;;;;;;;40.00;19.00;;;;;;;;;;4992277;28;20030;-59
2021/03/03 13:29:16;;;;;;;32.00;19.30;;;;;;;;;;4991685;28;20488;-59
2021/03/03 13:31:42;;;;;;;24.55;17.38;;;;;;;;;;4989097;28;20062;-59
2021/03/03 13:34:07;;;;;;;28.77;18.58;;;;;;;;;;4989961;28;20042;-58
2021/03/03 13:36:33;;;;;;;33.78;19.92;;;;;;;;;;4989269;28;20031;-58
2021/03/03 13:38:58;;;;;;;25.90;18.70;;;;;;;;;;4988455;28;20456;-59
2021/03/03 13:41:24;;;;;;;24.88;19.63;;;;;;;;;;4986523;28;20034;-59
2021/03/03 13:43:49;;;;;;;30.60;20.17;;;;;;;;;;4985177;28;20117;-59
2021/03/03 13:46:14;;;;;;;32.53;20.35;;;;;;;;;;4987985;28;20038;-59
2021/03/03 13:48:40;;;;;;;24.98;19.20;;;;;;;;;;4989294;28;20611;-59
2021/03/03 13:51:05;;;;;;;29.25;18.80;;;;;;;;;;4990324;28;20096;-59
2021/03/03 13:53:31;;;;;;;28.98;19.90;;;;;;;;;;4988127;28;20046;-59
2021/03/03 13:55:56;;;;;;;27.38;19.40;;;;;;;;;;4990210;28;20121;-59
2021/03/03 13:58:22;;;;;;;31.83;19.55;;;;;;;;;;4988418;28;20038;-59
2021/03/03 14:00:48;;;;;;;25.88;19.35;;;;;;;;;;4988245;28;20026;-59
2021/03/03 14:03:16;;;;;;;26.42;19.45;;;;;;;;;;4981774;28;20041;-59
2021/03/03 14:05:42;;;;;;;30.13;19.58;;;;;;;;;;4977547;28;20513;-59
2021/03/03 14:08:07;;;;;;;36.20;20.17;;;;;;;;;;4986735;28;20133;-59
2021/03/03 14:10:33;;;;;;;26.45;18.08;;;;;;;;;;4981196;28;20376;-59
2021/03/03 14:12:58;;;;;;;27.70;19.00;;;;;;;;;;4982652;28;20052;-59
2021/03/03 14:15:23;;;;;;;29.77;20.08;;;;;;;;;;4983832;28;20475;-59
2021/03/03 14:17:49;;;;;;;28.00;20.27;;;;;;;;;;4989132;28;20112;-59
2021/03/03 14:20:14;;;;;;;27.23;20.75;;;;;;;;;;4988869;28;20056;-59
2021/03/03 14:22:40;;;;;;;24.10;19.48;;;;;;;;;;4990011;28;20373;-59